Budd Lake, NJ

11:59 PM EST on March 05, 2015 (GMT -0500)
Mt Olive Township | Change Station
CLOSE
Current Station
Personal Weather Station
Location: Budd Lake, NJ
Elevation: 1013 ft
Nearby Weather Stations

Elev 1013 ft 40.87 °N, 74.75 °W | Updated 11 seconds ago

Partly Cloudy
Partly Cloudy
10.1 °F
Feels Like 10 °F
N
0.0
Wind Variable Wind from East
Gusts 0.0 mph

Today
High -- | Low -- °F
--% Chance of Precip.
Yesterday
High -- | Low -- °F
Precip. -- in
6:27 AM 5:54 PM
Full, 100% visible
Pressure 30.42 in
Visibility 10.0 miles
Clouds Clear
Windchill 10 °F
Dew Point 5 °F
Humidity 79%
Rainfall in
Snow Depth Not available.
UV 0 out of 12
Pollen .60 out of 12
Air Quality Not available.
Flu Activity Not available.
METAR KSMQ 060453Z AUTO 34006KT 10SM CLR M08/M15 A3040 RMK AO2 SLP299 T10831150 400391083 TSNO

More Conditions Fewer Conditions

Pressure 30.42 in
Visibility 10.0 miles
Clouds Clear
Windchill 10 °F
Dew Point 5 °F
Humidity 79%
Rainfall in
Snow Depth Not available.
UV 0 out of 12
Pollen .60 out of 12
Air Quality Not available.
Flu Activity Not available.
METAR KSMQ 060453Z AUTO 34006KT 10SM CLR M08/M15 A3040 RMK AO2 SLP299 T10831150 400391083 TSNO

More Conditions Fewer Conditions

10-Day Weather Forecast

Almanac

Astronomy

Mar. 05, 2015 Rise Set
Actual Time
Civil Twilight
Nautical Twilight
Astronomical Twilight
Moon
Length of Visible Light
Length of Day
Tomorrow will be .
, % of the Moon is Illuminated

Today's Extremes

State Highs State Lows

Community

WunderPhotos

Upload Photos

1,803,178 photos uploaded!

WunderBlogs® & News

Nearby

Air Quality

  Air Quality AQ Index Pollutant
Not available.

Snow Depth

Station Depth Elevation

Earthquake Activity

City Distance Mag. Time & Date
Minimum magnitude displayed is 2.5.

Coastal Water Temperatures

Place Temperature

Nearby Weather Stations